sensor_id;sensor_type;location;lat;lon;timestamp;P1;durP1;ratioP1;P2;durP2;ratioP2
23159;SDS011;11748;50.844;4.396;2022-10-31T00:03:44;13.85;;;6.63;;
23159;SDS011;11748;50.844;4.396;2022-10-31T00:06:11;16.90;;;7.07;;
23159;SDS011;11748;50.844;4.396;2022-10-31T00:08:37;15.43;;;7.05;;
23159;SDS011;11748;50.844;4.396;2022-10-31T00:11:02;13.13;;;6.50;;
23159;SDS011;11748;50.844;4.396;2022-10-31T00:13:28;13.38;;;6.55;;
23159;SDS011;11748;50.844;4.396;2022-10-31T00:15:54;12.18;;;7.13;;
23159;SDS011;11748;50.844;4.396;2022-10-31T00:18:19;12.70;;;6.80;;
23159;SDS011;11748;50.844;4.396;2022-10-31T00:20:45;11.52;;;6.72;;
23159;SDS011;11748;50.844;4.396;2022-10-31T00:23:11;12.32;;;6.90;;
23159;SDS011;11748;50.844;4.396;2022-10-31T00:25:37;11.32;;;6.65;;
23159;SDS011;11748;50.844;4.396;2022-10-31T00:28:05;11.70;;;6.50;;
23159;SDS011;11748;50.844;4.396;2022-10-31T00:30:32;12.55;;;6.30;;
23159;SDS011;11748;50.844;4.396;2022-10-31T00:32:58;12.40;;;6.95;;
23159;SDS011;11748;50.844;4.396;2022-10-31T00:35:23;13.55;;;6.50;;
23159;SDS011;11748;50.844;4.396;2022-10-31T00:37:49;11.98;;;6.70;;
23159;SDS011;11748;50.844;4.396;2022-10-31T00:40:16;12.63;;;6.82;;
23159;SDS011;11748;50.844;4.396;2022-10-31T00:42:42;9.98;;;6.57;;
23159;SDS011;11748;50.844;4.396;2022-10-31T00:45:08;14.68;;;6.38;;
23159;SDS011;11748;50.844;4.396;2022-10-31T00:47:34;11.10;;;6.60;;
23159;SDS011;11748;50.844;4.396;2022-10-31T00:50:00;13.60;;;6.57;;
23159;SDS011;11748;50.844;4.396;2022-10-31T00:52:26;11.55;;;6.78;;
23159;SDS011;11748;50.844;4.396;2022-10-31T00:54:51;14.23;;;6.75;;
23159;SDS011;11748;50.844;4.396;2022-10-31T00:57:17;12.13;;;6.50;;
23159;SDS011;11748;50.844;4.396;2022-10-31T00:59:43;13.48;;;7.22;;
23159;SDS011;11748;50.844;4.396;2022-10-31T01:02:08;11.18;;;6.80;;
23159;SDS011;11748;50.844;4.396;2022-10-31T01:04:34;11.27;;;6.70;;
23159;SDS011;11748;50.844;4.396;2022-10-31T01:07:00;13.43;;;7.15;;
23159;SDS011;11748;50.844;4.396;2022-10-31T01:09:25;11.50;;;6.38;;
23159;SDS011;11748;50.844;4.396;2022-10-31T01:11:51;13.00;;;6.63;;
23159;SDS011;11748;50.844;4.396;2022-10-31T01:14:17;10.40;;;6.30;;
23159;SDS011;11748;50.844;4.396;2022-10-31T01:16:42;13.25;;;7.10;;
23159;SDS011;11748;50.844;4.396;2022-10-31T01:19:08;11.23;;;6.10;;
23159;SDS011;11748;50.844;4.396;2022-10-31T01:21:34;11.88;;;6.40;;
23159;SDS011;11748;50.844;4.396;2022-10-31T01:23:59;18.90;;;6.57;;
23159;SDS011;11748;50.844;4.396;2022-10-31T01:26:29;11.88;;;6.75;;
23159;SDS011;11748;50.844;4.396;2022-10-31T01:29:00;10.02;;;5.95;;
23159;SDS011;11748;50.844;4.396;2022-10-31T01:31:29;13.15;;;5.75;;
23159;SDS011;11748;50.844;4.396;2022-10-31T01:33:56;10.70;;;5.70;;
23159;SDS011;11748;50.844;4.396;2022-10-31T01:36:27;9.48;;;5.88;;
23159;SDS011;11748;50.844;4.396;2022-10-31T01:38:55;13.18;;;6.28;;
23159;SDS011;11748;50.844;4.396;2022-10-31T01:41:23;10.32;;;5.95;;
23159;SDS011;11748;50.844;4.396;2022-10-31T01:43:55;11.55;;;5.78;;
23159;SDS011;11748;50.844;4.396;2022-10-31T01:46:24;12.25;;;6.63;;
23159;SDS011;11748;50.844;4.396;2022-10-31T01:48:51;10.77;;;6.10;;
23159;SDS011;11748;50.844;4.396;2022-10-31T01:51:19;9.80;;;5.80;;
23159;SDS011;11748;50.844;4.396;2022-10-31T01:53:49;10.43;;;6.03;;
23159;SDS011;11748;50.844;4.396;2022-10-31T01:56:19;10.60;;;6.00;;
23159;SDS011;11748;50.844;4.396;2022-10-31T01:58:45;13.02;;;6.13;;
23159;SDS011;11748;50.844;4.396;2022-10-31T02:01:12;7.57;;;5.53;;
23159;SDS011;11748;50.844;4.396;2022-10-31T02:03:39;13.13;;;5.60;;
23159;SDS011;11748;50.844;4.396;2022-10-31T02:06:06;11.93;;;5.93;;
23159;SDS011;11748;50.844;4.396;2022-10-31T02:08:38;10.82;;;6.43;;
23159;SDS011;11748;50.844;4.396;2022-10-31T02:11:05;11.88;;;6.13;;
23159;SDS011;11748;50.844;4.396;2022-10-31T02:13:32;13.90;;;6.88;;
23159;SDS011;11748;50.844;4.396;2022-10-31T02:15:59;9.98;;;5.82;;
23159;SDS011;11748;50.844;4.396;2022-10-31T02:18:26;14.32;;;6.60;;
23159;SDS011;11748;50.844;4.396;2022-10-31T02:26:44;11.27;;;6.03;;
23159;SDS011;11748;50.844;4.396;2022-10-31T02:31:55;11.95;;;6.32;;
23159;SDS011;11748;50.844;4.396;2022-10-31T02:43:02;11.90;;;6.90;;
23159;SDS011;11748;50.844;4.396;2022-10-31T02:48:12;13.20;;;6.50;;
23159;SDS011;11748;50.844;4.396;2022-10-31T02:50:45;15.10;;;6.95;;
23159;SDS011;11748;50.844;4.396;2022-10-31T02:53:17;10.95;;;6.80;;
23159;SDS011;11748;50.844;4.396;2022-10-31T02:55:47;13.55;;;7.15;;
23159;SDS011;11748;50.844;4.396;2022-10-31T02:58:31;14.20;;;7.07;;
23159;SDS011;11748;50.844;4.396;2022-10-31T03:04:24;11.40;;;6.75;;
23159;SDS011;11748;50.844;4.396;2022-10-31T03:09:54;12.77;;;7.03;;
23159;SDS011;11748;50.844;4.396;2022-10-31T03:12:24;14.73;;;6.85;;
23159;SDS011;11748;50.844;4.396;2022-10-31T03:17:36;12.23;;;7.05;;
23159;SDS011;11748;50.844;4.396;2022-10-31T03:20:05;11.23;;;7.05;;
23159;SDS011;11748;50.844;4.396;2022-10-31T03:22:34;14.60;;;6.88;;
23159;SDS011;11748;50.844;4.396;2022-10-31T03:25:04;11.25;;;6.93;;
23159;SDS011;11748;50.844;4.396;2022-10-31T03:27:31;10.25;;;6.70;;
23159;SDS011;11748;50.844;4.396;2022-10-31T03:30:00;13.70;;;7.07;;
23159;SDS011;11748;50.844;4.396;2022-10-31T03:32:31;11.57;;;6.68;;
23159;SDS011;11748;50.844;4.396;2022-10-31T03:35:04;12.73;;;6.93;;
23159;SDS011;11748;50.844;4.396;2022-10-31T03:37:33;13.73;;;7.35;;
23159;SDS011;11748;50.844;4.396;2022-10-31T03:40:01;16.73;;;7.15;;
23159;SDS011;11748;50.844;4.396;2022-10-31T03:42:31;10.32;;;6.50;;
23159;SDS011;11748;50.844;4.396;2022-10-31T03:45:21;10.90;;;6.68;;
23159;SDS011;11748;50.844;4.396;2022-10-31T03:47:55;15.88;;;6.90;;
23159;SDS011;11748;50.844;4.396;2022-10-31T03:50:23;15.23;;;7.60;;
23159;SDS011;11748;50.844;4.396;2022-10-31T03:53:27;14.30;;;7.03;;
23159;SDS011;11748;50.844;4.396;2022-10-31T03:55:56;11.23;;;6.80;;
23159;SDS011;11748;50.844;4.396;2022-10-31T03:58:25;11.55;;;7.20;;
23159;SDS011;11748;50.844;4.396;2022-10-31T04:00:57;10.82;;;7.07;;
23159;SDS011;11748;50.844;4.396;2022-10-31T04:03:27;12.25;;;7.03;;
23159;SDS011;11748;50.844;4.396;2022-10-31T04:05:58;14.88;;;7.05;;
23159;SDS011;11748;50.844;4.396;2022-10-31T04:08:28;13.55;;;6.88;;
23159;SDS011;11748;50.844;4.396;2022-10-31T04:10:56;14.13;;;7.25;;
23159;SDS011;11748;50.844;4.396;2022-10-31T04:13:25;14.32;;;7.65;;
23159;SDS011;11748;50.844;4.396;2022-10-31T04:15:54;12.63;;;7.55;;
23159;SDS011;11748;50.844;4.396;2022-10-31T04:18:24;12.55;;;7.35;;
23159;SDS011;11748;50.844;4.396;2022-10-31T04:20:58;15.35;;;7.65;;
23159;SDS011;11748;50.844;4.396;2022-10-31T04:23:26;13.00;;;7.82;;
23159;SDS011;11748;50.844;4.396;2022-10-31T04:25:52;17.55;;;7.90;;
23159;SDS011;11748;50.844;4.396;2022-10-31T04:28:19;12.40;;;8.07;;
23159;SDS011;11748;50.844;4.396;2022-10-31T04:30:44;16.00;;;7.82;;
23159;SDS011;11748;50.844;4.396;2022-10-31T04:33:10;11.88;;;7.57;;
23159;SDS011;11748;50.844;4.396;2022-10-31T04:35:36;13.20;;;8.70;;
23159;SDS011;11748;50.844;4.396;2022-10-31T04:38:01;14.52;;;7.72;;
23159;SDS011;11748;50.844;4.396;2022-10-31T04:40:28;12.95;;;8.23;;
23159;SDS011;11748;50.844;4.396;2022-10-31T04:42:54;14.52;;;9.20;;
23159;SDS011;11748;50.844;4.396;2022-10-31T04:45:20;12.18;;;8.02;;
23159;SDS011;11748;50.844;4.396;2022-10-31T04:47:46;12.93;;;8.10;;
23159;SDS011;11748;50.844;4.396;2022-10-31T04:50:11;16.48;;;8.63;;
23159;SDS011;11748;50.844;4.396;2022-10-31T04:52:40;21.83;;;9.50;;
23159;SDS011;11748;50.844;4.396;2022-10-31T04:55:07;16.80;;;9.18;;
23159;SDS011;11748;50.844;4.396;2022-10-31T04:57:39;16.48;;;9.77;;
23159;SDS011;11748;50.844;4.396;2022-10-31T05:00:10;15.85;;;9.38;;
23159;SDS011;11748;50.844;4.396;2022-10-31T05:02:50;14.95;;;10.50;;
23159;SDS011;11748;50.844;4.396;2022-10-31T05:05:17;17.40;;;10.80;;
23159;SDS011;11748;50.844;4.396;2022-10-31T05:07:45;16.33;;;11.07;;
23159;SDS011;11748;50.844;4.396;2022-10-31T05:10:13;16.45;;;10.63;;
23159;SDS011;11748;50.844;4.396;2022-10-31T05:12:48;15.90;;;10.68;;
23159;SDS011;11748;50.844;4.396;2022-10-31T05:15:15;16.83;;;10.40;;
23159;SDS011;11748;50.844;4.396;2022-10-31T05:17:42;19.70;;;11.75;;
23159;SDS011;11748;50.844;4.396;2022-10-31T05:20:08;19.98;;;10.88;;
23159;SDS011;11748;50.844;4.396;2022-10-31T05:22:35;18.95;;;11.07;;
23159;SDS011;11748;50.844;4.396;2022-10-31T05:25:01;18.33;;;11.52;;
23159;SDS011;11748;50.844;4.396;2022-10-31T05:27:27;18.33;;;11.57;;
23159;SDS011;11748;50.844;4.396;2022-10-31T05:29:52;19.83;;;10.52;;
23159;SDS011;11748;50.844;4.396;2022-10-31T05:32:18;19.10;;;11.43;;
23159;SDS011;11748;50.844;4.396;2022-10-31T05:34:44;17.80;;;11.38;;
23159;SDS011;11748;50.844;4.396;2022-10-31T05:37:09;18.83;;;11.45;;
23159;SDS011;11748;50.844;4.396;2022-10-31T05:39:35;23.67;;;11.70;;
23159;SDS011;11748;50.844;4.396;2022-10-31T05:42:01;17.30;;;10.55;;
23159;SDS011;11748;50.844;4.396;2022-10-31T05:44:27;16.67;;;10.80;;
23159;SDS011;11748;50.844;4.396;2022-10-31T05:46:53;21.58;;;10.90;;
23159;SDS011;11748;50.844;4.396;2022-10-31T05:49:18;18.50;;;11.20;;
23159;SDS011;11748;50.844;4.396;2022-10-31T05:51:44;16.65;;;10.25;;
23159;SDS011;11748;50.844;4.396;2022-10-31T05:54:10;19.73;;;11.55;;
23159;SDS011;11748;50.844;4.396;2022-10-31T05:56:36;18.23;;;10.45;;
23159;SDS011;11748;50.844;4.396;2022-10-31T05:59:01;19.92;;;11.55;;
23159;SDS011;11748;50.844;4.396;2022-10-31T06:01:27;20.23;;;11.30;;
23159;SDS011;11748;50.844;4.396;2022-10-31T06:03:53;19.73;;;11.02;;
23159;SDS011;11748;50.844;4.396;2022-10-31T06:06:18;17.50;;;11.90;;
23159;SDS011;11748;50.844;4.396;2022-10-31T06:08:44;16.35;;;10.68;;
23159;SDS011;11748;50.844;4.396;2022-10-31T06:11:10;16.48;;;10.60;;
23159;SDS011;11748;50.844;4.396;2022-10-31T06:13:36;21.90;;;10.57;;
23159;SDS011;11748;50.844;4.396;2022-10-31T06:16:01;18.65;;;11.20;;
23159;SDS011;11748;50.844;4.396;2022-10-31T06:18:27;18.42;;;10.32;;
23159;SDS011;11748;50.844;4.396;2022-10-31T06:20:53;17.80;;;10.38;;
23159;SDS011;11748;50.844;4.396;2022-10-31T06:23:19;18.00;;;10.45;;
23159;SDS011;11748;50.844;4.396;2022-10-31T06:25:48;18.75;;;10.82;;
23159;SDS011;11748;50.844;4.396;2022-10-31T06:28:15;16.48;;;10.50;;
23159;SDS011;11748;50.844;4.396;2022-10-31T06:30:40;20.20;;;10.85;;
23159;SDS011;11748;50.844;4.396;2022-10-31T06:33:06;21.00;;;11.05;;
23159;SDS011;11748;50.844;4.396;2022-10-31T06:35:32;19.30;;;11.50;;
23159;SDS011;11748;50.844;4.396;2022-10-31T06:37:58;17.20;;;10.63;;
23159;SDS011;11748;50.844;4.396;2022-10-31T06:40:23;18.90;;;10.85;;
23159;SDS011;11748;50.844;4.396;2022-10-31T06:42:56;17.67;;;10.65;;
23159;SDS011;11748;50.844;4.396;2022-10-31T06:45:23;18.17;;;10.30;;
23159;SDS011;11748;50.844;4.396;2022-10-31T06:47:52;16.70;;;10.05;;
23159;SDS011;11748;50.844;4.396;2022-10-31T06:50:19;14.73;;;10.45;;
23159;SDS011;11748;50.844;4.396;2022-10-31T06:52:52;21.05;;;11.07;;
23159;SDS011;11748;50.844;4.396;2022-10-31T06:55:20;17.08;;;10.90;;
23159;SDS011;11748;50.844;4.396;2022-10-31T06:57:51;17.65;;;10.85;;
23159;SDS011;11748;50.844;4.396;2022-10-31T07:00:24;15.15;;;10.85;;
23159;SDS011;11748;50.844;4.396;2022-10-31T07:03:01;18.10;;;10.07;;
23159;SDS011;11748;50.844;4.396;2022-10-31T07:05:29;15.68;;;10.40;;
23159;SDS011;11748;50.844;4.396;2022-10-31T07:07:56;16.25;;;10.82;;
23159;SDS011;11748;50.844;4.396;2022-10-31T07:10:28;20.77;;;11.02;;
23159;SDS011;11748;50.844;4.396;2022-10-31T07:12:57;16.90;;;10.77;;
23159;SDS011;11748;50.844;4.396;2022-10-31T07:15:24;16.73;;;10.63;;
23159;SDS011;11748;50.844;4.396;2022-10-31T07:17:51;18.70;;;11.50;;
23159;SDS011;11748;50.844;4.396;2022-10-31T07:20:17;17.42;;;10.80;;
23159;SDS011;11748;50.844;4.396;2022-10-31T07:22:43;18.77;;;11.60;;
23159;SDS011;11748;50.844;4.396;2022-10-31T07:25:09;15.55;;;10.75;;
23159;SDS011;11748;50.844;4.396;2022-10-31T07:27:36;13.95;;;10.27;;
23159;SDS011;11748;50.844;4.396;2022-10-31T07:30:03;17.30;;;11.65;;
23159;SDS011;11748;50.844;4.396;2022-10-31T07:32:42;16.30;;;10.48;;
23159;SDS011;11748;50.844;4.396;2022-10-31T07:35:11;18.00;;;11.25;;
23159;SDS011;11748;50.844;4.396;2022-10-31T07:37:47;18.73;;;11.45;;
23159;SDS011;11748;50.844;4.396;2022-10-31T07:40:14;16.80;;;11.02;;
23159;SDS011;11748;50.844;4.396;2022-10-31T07:42:42;16.38;;;11.07;;
23159;SDS011;11748;50.844;4.396;2022-10-31T07:45:10;17.55;;;11.77;;
23159;SDS011;11748;50.844;4.396;2022-10-31T07:47:58;17.95;;;11.98;;
23159;SDS011;11748;50.844;4.396;2022-10-31T07:50:30;17.90;;;11.05;;
23159;SDS011;11748;50.844;4.396;2022-10-31T07:53:03;18.98;;;10.43;;
23159;SDS011;11748;50.844;4.396;2022-10-31T07:55:31;22.13;;;11.02;;
23159;SDS011;11748;50.844;4.396;2022-10-31T07:57:58;18.98;;;10.82;;
23159;SDS011;11748;50.844;4.396;2022-10-31T08:00:24;16.17;;;10.20;;
23159;SDS011;11748;50.844;4.396;2022-10-31T08:02:59;17.98;;;10.02;;
23159;SDS011;11748;50.844;4.396;2022-10-31T08:05:30;15.32;;;9.85;;
23159;SDS011;11748;50.844;4.396;2022-10-31T08:07:57;16.65;;;9.25;;
23159;SDS011;11748;50.844;4.396;2022-10-31T08:10:23;12.32;;;8.93;;
23159;SDS011;11748;50.844;4.396;2022-10-31T08:15:30;18.27;;;9.57;;
23159;SDS011;11748;50.844;4.396;2022-10-31T08:17:56;14.45;;;8.73;;
23159;SDS011;11748;50.844;4.396;2022-10-31T08:20:22;14.80;;;8.75;;
23159;SDS011;11748;50.844;4.396;2022-10-31T08:22:54;13.23;;;8.07;;
23159;SDS011;11748;50.844;4.396;2022-10-31T08:25:29;13.50;;;9.00;;
23159;SDS011;11748;50.844;4.396;2022-10-31T08:27:56;13.95;;;8.65;;
23159;SDS011;11748;50.844;4.396;2022-10-31T08:30:22;14.13;;;8.70;;
23159;SDS011;11748;50.844;4.396;2022-10-31T08:35:32;12.35;;;7.20;;
23159;SDS011;11748;50.844;4.396;2022-10-31T08:37:58;12.77;;;7.72;;
23159;SDS011;11748;50.844;4.396;2022-10-31T08:40:25;12.40;;;7.50;;
23159;SDS011;11748;50.844;4.396;2022-10-31T08:42:59;10.25;;;7.20;;
23159;SDS011;11748;50.844;4.396;2022-10-31T08:45:26;16.23;;;7.45;;
23159;SDS011;11748;50.844;4.396;2022-10-31T08:47:53;12.95;;;7.05;;
23159;SDS011;11748;50.844;4.396;2022-10-31T08:50:22;14.20;;;7.78;;
23159;SDS011;11748;50.844;4.396;2022-10-31T08:52:48;12.02;;;7.80;;
23159;SDS011;11748;50.844;4.396;2022-10-31T08:55:14;12.63;;;7.95;;
23159;SDS011;11748;50.844;4.396;2022-10-31T08:57:40;15.80;;;7.30;;
23159;SDS011;11748;50.844;4.396;2022-10-31T09:00:06;13.25;;;7.72;;
23159;SDS011;11748;50.844;4.396;2022-10-31T09:02:32;12.48;;;7.32;;
23159;SDS011;11748;50.844;4.396;2022-10-31T09:04:58;10.57;;;7.20;;
23159;SDS011;11748;50.844;4.396;2022-10-31T09:07:23;12.70;;;7.35;;
23159;SDS011;11748;50.844;4.396;2022-10-31T09:09:49;14.55;;;6.72;;
23159;SDS011;11748;50.844;4.396;2022-10-31T09:12:15;11.43;;;6.63;;
23159;SDS011;11748;50.844;4.396;2022-10-31T09:14:41;12.55;;;6.68;;
23159;SDS011;11748;50.844;4.396;2022-10-31T09:17:06;10.45;;;6.53;;
23159;SDS011;11748;50.844;4.396;2022-10-31T09:19:32;9.85;;;5.97;;
23159;SDS011;11748;50.844;4.396;2022-10-31T09:21:57;11.30;;;6.53;;
23159;SDS011;11748;50.844;4.396;2022-10-31T09:24:23;10.32;;;6.57;;
23159;SDS011;11748;50.844;4.396;2022-10-31T09:26:49;13.32;;;6.40;;
23159;SDS011;11748;50.844;4.396;2022-10-31T09:29:14;14.05;;;6.95;;
23159;SDS011;11748;50.844;4.396;2022-10-31T09:31:40;11.68;;;6.75;;
23159;SDS011;11748;50.844;4.396;2022-10-31T09:34:06;11.55;;;7.13;;
23159;SDS011;11748;50.844;4.396;2022-10-31T09:36:31;12.63;;;6.82;;
23159;SDS011;11748;50.844;4.396;2022-10-31T09:38:57;12.57;;;6.53;;
23159;SDS011;11748;50.844;4.396;2022-10-31T09:41:25;11.60;;;6.50;;
23159;SDS011;11748;50.844;4.396;2022-10-31T09:44:19;9.93;;;6.22;;
23159;SDS011;11748;50.844;4.396;2022-10-31T09:47:12;13.68;;;6.75;;
23159;SDS011;11748;50.844;4.396;2022-10-31T09:52:38;10.77;;;6.43;;
23159;SDS011;11748;50.844;4.396;2022-10-31T09:55:14;10.10;;;6.15;;
23159;SDS011;11748;50.844;4.396;2022-10-31T09:58:00;11.05;;;6.25;;
23159;SDS011;11748;50.844;4.396;2022-10-31T10:00:26;11.75;;;6.00;;
23159;SDS011;11748;50.844;4.396;2022-10-31T10:02:54;10.95;;;5.88;;
23159;SDS011;11748;50.844;4.396;2022-10-31T10:05:27;9.77;;;6.80;;
23159;SDS011;11748;50.844;4.396;2022-10-31T10:08:10;11.43;;;6.15;;
23159;SDS011;11748;50.844;4.396;2022-10-31T10:26:15;11.23;;;6.13;;
23159;SDS011;11748;50.844;4.396;2022-10-31T10:29:31;16.13;;;6.45;;
23159;SDS011;11748;50.844;4.396;2022-10-31T10:31:45;11.73;;;6.13;;
23159;SDS011;11748;50.844;4.396;2022-10-31T10:36:48;11.02;;;6.60;;
23159;SDS011;11748;50.844;4.396;2022-10-31T10:39:22;13.65;;;6.60;;
23159;SDS011;11748;50.844;4.396;2022-10-31T10:41:52;9.48;;;6.20;;
23159;SDS011;11748;50.844;4.396;2022-10-31T10:44:43;13.70;;;6.70;;
23159;SDS011;11748;50.844;4.396;2022-10-31T10:47:34;13.25;;;7.72;;
23159;SDS011;11748;50.844;4.396;2022-10-31T10:58:26;14.38;;;7.25;;
23159;SDS011;11748;50.844;4.396;2022-10-31T11:00:51;13.15;;;6.53;;
23159;SDS011;11748;50.844;4.396;2022-10-31T11:03:19;12.77;;;8.32;;
23159;SDS011;11748;50.844;4.396;2022-10-31T11:05:51;12.32;;;7.00;;
23159;SDS011;11748;50.844;4.396;2022-10-31T11:08:27;15.15;;;8.10;;
23159;SDS011;11748;50.844;4.396;2022-10-31T11:11:06;11.70;;;7.45;;
23159;SDS011;11748;50.844;4.396;2022-10-31T11:13:47;10.60;;;7.03;;
23159;SDS011;11748;50.844;4.396;2022-10-31T11:16:15;11.82;;;7.28;;
23159;SDS011;11748;50.844;4.396;2022-10-31T11:18:52;14.15;;;7.72;;
23159;SDS011;11748;50.844;4.396;2022-10-31T11:21:22;18.65;;;7.75;;
23159;SDS011;11748;50.844;4.396;2022-10-31T11:24:01;15.30;;;7.30;;
23159;SDS011;11748;50.844;4.396;2022-10-31T11:26:28;14.43;;;7.50;;
23159;SDS011;11748;50.844;4.396;2022-10-31T11:28:57;13.80;;;7.88;;
23159;SDS011;11748;50.844;4.396;2022-10-31T11:31:25;14.82;;;8.40;;
23159;SDS011;11748;50.844;4.396;2022-10-31T11:33:55;12.85;;;7.78;;
23159;SDS011;11748;50.844;4.396;2022-10-31T11:36:26;14.77;;;8.32;;
23159;SDS011;11748;50.844;4.396;2022-10-31T11:38:55;12.85;;;7.85;;
23159;SDS011;11748;50.844;4.396;2022-10-31T11:41:26;16.13;;;8.55;;
23159;SDS011;11748;50.844;4.396;2022-10-31T11:49:44;15.70;;;8.00;;
23159;SDS011;11748;50.844;4.396;2022-10-31T11:52:13;13.60;;;7.40;;
23159;SDS011;11748;50.844;4.396;2022-10-31T11:54:47;16.40;;;8.95;;
23159;SDS011;11748;50.844;4.396;2022-10-31T11:59:52;18.35;;;8.73;;
23159;SDS011;11748;50.844;4.396;2022-10-31T12:02:21;16.60;;;8.25;;
23159;SDS011;11748;50.844;4.396;2022-10-31T12:04:50;16.05;;;7.78;;
23159;SDS011;11748;50.844;4.396;2022-10-31T12:07:22;16.73;;;8.63;;
23159;SDS011;11748;50.844;4.396;2022-10-31T12:09:48;12.98;;;7.95;;
23159;SDS011;11748;50.844;4.396;2022-10-31T12:12:33;16.70;;;7.50;;
23159;SDS011;11748;50.844;4.396;2022-10-31T12:17:52;14.60;;;7.38;;
23159;SDS011;11748;50.844;4.396;2022-10-31T12:20:44;17.60;;;7.45;;
23159;SDS011;11748;50.844;4.396;2022-10-31T12:26:22;15.05;;;6.95;;
23159;SDS011;11748;50.844;4.396;2022-10-31T12:34:18;17.70;;;7.43;;
23159;SDS011;11748;50.844;4.396;2022-10-31T12:39:53;12.15;;;6.65;;
23159;SDS011;11748;50.844;4.396;2022-10-31T12:50:50;15.70;;;6.53;;
23159;SDS011;11748;50.844;4.396;2022-10-31T12:59:20;13.52;;;6.63;;
23159;SDS011;11748;50.844;4.396;2022-10-31T13:02:00;12.00;;;5.90;;
23159;SDS011;11748;50.844;4.396;2022-10-31T13:04:50;11.88;;;6.15;;
23159;SDS011;11748;50.844;4.396;2022-10-31T13:07:27;15.50;;;5.80;;
23159;SDS011;11748;50.844;4.396;2022-10-31T13:10:13;13.18;;;6.22;;
23159;SDS011;11748;50.844;4.396;2022-10-31T13:12:53;14.05;;;6.55;;
23159;SDS011;11748;50.844;4.396;2022-10-31T13:15:24;14.48;;;5.75;;
23159;SDS011;11748;50.844;4.396;2022-10-31T13:17:55;12.18;;;5.78;;
23159;SDS011;11748;50.844;4.396;2022-10-31T13:20:43;12.27;;;5.85;;
23159;SDS011;11748;50.844;4.396;2022-10-31T13:25:47;12.90;;;6.10;;
23159;SDS011;11748;50.844;4.396;2022-10-31T13:31:04;16.02;;;6.70;;
23159;SDS011;11748;50.844;4.396;2022-10-31T13:33:32;14.32;;;6.10;;
23159;SDS011;11748;50.844;4.396;2022-10-31T13:36:09;11.90;;;6.40;;
23159;SDS011;11748;50.844;4.396;2022-10-31T13:38:39;11.73;;;6.18;;
23159;SDS011;11748;50.844;4.396;2022-10-31T13:41:31;13.63;;;6.53;;
23159;SDS011;11748;50.844;4.396;2022-10-31T13:44:03;12.00;;;6.40;;
23159;SDS011;11748;50.844;4.396;2022-10-31T13:46:39;14.70;;;6.93;;
23159;SDS011;11748;50.844;4.396;2022-10-31T13:54:34;15.75;;;7.03;;
23159;SDS011;11748;50.844;4.396;2022-10-31T13:57:06;15.82;;;5.97;;
23159;SDS011;11748;50.844;4.396;2022-10-31T13:59:53;14.27;;;6.15;;
23159;SDS011;11748;50.844;4.396;2022-10-31T14:02:29;17.42;;;6.28;;
23159;SDS011;11748;50.844;4.396;2022-10-31T14:05:00;12.38;;;5.60;;
23159;SDS011;11748;50.844;4.396;2022-10-31T14:07:46;15.10;;;5.18;;
23159;SDS011;11748;50.844;4.396;2022-10-31T14:10:25;11.80;;;5.50;;
23159;SDS011;11748;50.844;4.396;2022-10-31T14:15:59;14.40;;;5.32;;
23159;SDS011;11748;50.844;4.396;2022-10-31T14:18:33;11.30;;;5.03;;
23159;SDS011;11748;50.844;4.396;2022-10-31T14:20:59;11.85;;;4.97;;
23159;SDS011;11748;50.844;4.396;2022-10-31T14:28:57;11.63;;;4.70;;
23159;SDS011;11748;50.844;4.396;2022-10-31T14:31:38;9.68;;;4.95;;
23159;SDS011;11748;50.844;4.396;2022-10-31T14:50:48;15.50;;;4.47;;
23159;SDS011;11748;50.844;4.396;2022-10-31T14:53:19;13.70;;;4.97;;
23159;SDS011;11748;50.844;4.396;2022-10-31T14:55:50;10.52;;;5.18;;
23159;SDS011;11748;50.844;4.396;2022-10-31T15:01:29;16.50;;;5.70;;
23159;SDS011;11748;50.844;4.396;2022-10-31T15:04:20;9.50;;;4.75;;
23159;SDS011;11748;50.844;4.396;2022-10-31T15:06:47;13.05;;;5.35;;
23159;SDS011;11748;50.844;4.396;2022-10-31T15:09:21;11.80;;;5.18;;
23159;SDS011;11748;50.844;4.396;2022-10-31T15:11:47;15.05;;;5.43;;
23159;SDS011;11748;50.844;4.396;2022-10-31T15:16:49;16.02;;;5.90;;
23159;SDS011;11748;50.844;4.396;2022-10-31T15:19:16;15.00;;;6.18;;
23159;SDS011;11748;50.844;4.396;2022-10-31T15:21:50;10.17;;;5.17;;
23159;SDS011;11748;50.844;4.396;2022-10-31T15:24:18;12.23;;;5.80;;
23159;SDS011;11748;50.844;4.396;2022-10-31T15:26:46;11.23;;;5.93;;
23159;SDS011;11748;50.844;4.396;2022-10-31T15:29:14;17.52;;;7.50;;
23159;SDS011;11748;50.844;4.396;2022-10-31T15:34:40;18.50;;;7.53;;
23159;SDS011;11748;50.844;4.396;2022-10-31T15:37:11;14.57;;;7.63;;
23159;SDS011;11748;50.844;4.396;2022-10-31T15:39:42;15.50;;;7.32;;
23159;SDS011;11748;50.844;4.396;2022-10-31T15:42:29;21.25;;;8.23;;
23159;SDS011;11748;50.844;4.396;2022-10-31T15:45:12;18.25;;;8.32;;
23159;SDS011;11748;50.844;4.396;2022-10-31T15:47:57;20.88;;;8.15;;
23159;SDS011;11748;50.844;4.396;2022-10-31T15:50:31;14.93;;;7.85;;
23159;SDS011;11748;50.844;4.396;2022-10-31T15:53:04;18.00;;;7.65;;
23159;SDS011;11748;50.844;4.396;2022-10-31T15:55:33;15.05;;;8.02;;
23159;SDS011;11748;50.844;4.396;2022-10-31T15:58:04;17.10;;;9.43;;
23159;SDS011;11748;50.844;4.396;2022-10-31T16:05:45;22.85;;;9.90;;
23159;SDS011;11748;50.844;4.396;2022-10-31T16:10:54;18.88;;;8.57;;
23159;SDS011;11748;50.844;4.396;2022-10-31T16:13:37;15.80;;;8.75;;
23159;SDS011;11748;50.844;4.396;2022-10-31T16:16:13;17.13;;;8.90;;
23159;SDS011;11748;50.844;4.396;2022-10-31T16:18:40;21.30;;;8.93;;
23159;SDS011;11748;50.844;4.396;2022-10-31T16:21:07;17.33;;;9.15;;
23159;SDS011;11748;50.844;4.396;2022-10-31T16:23:34;15.60;;;9.25;;
23159;SDS011;11748;50.844;4.396;2022-10-31T16:26:06;20.70;;;9.27;;
23159;SDS011;11748;50.844;4.396;2022-10-31T16:28:33;17.90;;;8.52;;
23159;SDS011;11748;50.844;4.396;2022-10-31T16:30:59;14.40;;;8.93;;
23159;SDS011;11748;50.844;4.396;2022-10-31T16:36:28;19.23;;;10.10;;
23159;SDS011;11748;50.844;4.396;2022-10-31T16:38:53;14.57;;;9.00;;
23159;SDS011;11748;50.844;4.396;2022-10-31T16:41:20;23.52;;;9.90;;
23159;SDS011;11748;50.844;4.396;2022-10-31T16:43:46;19.00;;;9.32;;
23159;SDS011;11748;50.844;4.396;2022-10-31T16:46:15;16.77;;;9.85;;
23159;SDS011;11748;50.844;4.396;2022-10-31T16:48:52;20.63;;;10.18;;
23159;SDS011;11748;50.844;4.396;2022-10-31T16:51:19;18.35;;;9.63;;
23159;SDS011;11748;50.844;4.396;2022-10-31T16:53:44;18.48;;;8.88;;
23159;SDS011;11748;50.844;4.396;2022-10-31T16:56:18;15.50;;;9.40;;
23159;SDS011;11748;50.844;4.396;2022-10-31T16:58:56;18.45;;;8.65;;
23159;SDS011;11748;50.844;4.396;2022-10-31T17:01:23;17.58;;;10.20;;
23159;SDS011;11748;50.844;4.396;2022-10-31T17:03:49;18.65;;;9.10;;
23159;SDS011;11748;50.844;4.396;2022-10-31T17:06:15;19.77;;;9.75;;
23159;SDS011;11748;50.844;4.396;2022-10-31T17:08:40;16.65;;;8.75;;
23159;SDS011;11748;50.844;4.396;2022-10-31T17:11:08;19.45;;;9.73;;
23159;SDS011;11748;50.844;4.396;2022-10-31T17:13:41;20.95;;;10.40;;
23159;SDS011;11748;50.844;4.396;2022-10-31T17:16:07;17.92;;;9.77;;
23159;SDS011;11748;50.844;4.396;2022-10-31T17:18:33;20.50;;;10.27;;
23159;SDS011;11748;50.844;4.396;2022-10-31T17:20:59;21.25;;;8.90;;
23159;SDS011;11748;50.844;4.396;2022-10-31T17:23:27;13.27;;;7.50;;
23159;SDS011;11748;50.844;4.396;2022-10-31T17:25:53;16.17;;;7.45;;